Time;durP1;ratioP1;P1;durP2;ratioP2;P2;SDS_P1;SDS_P2;PMS_P1;PMS_P2;Temp;Humidity;BMP_temperature;BMP_pressure;BME280_temperature;BME280_humidity;BME280_pressure;Samples;Min_cycle;Max_cycle;Signal;HPM_P1;HPM_P2
2023/09/05 00:00:05;;;;;;;5.68;1.80;;;18.30;99.90;;;;;;5016530;28;20091;-71
2023/09/05 00:02:31;;;;;;;3.85;2.03;;;18.40;99.90;;;;;;5017098;28;20026;-71
2023/09/05 00:04:57;;;;;;;3.20;2.22;;;18.40;99.90;;;;;;5017050;28;20021;-71
2023/09/05 00:07:23;;;;;;;2.90;2.22;;;18.40;99.90;;;;;;5016164;28;20034;-71
2023/09/05 00:09:49;;;;;;;3.67;1.98;;;18.40;99.90;;;;;;5016544;28;20075;-71
2023/09/05 00:12:15;;;;;;;3.05;1.85;;;18.30;99.90;;;;;;5016648;28;20045;-70
2023/09/05 00:14:41;;;;;;;3.63;1.80;;;18.20;99.90;;;;;;5017159;28;20026;-71
2023/09/05 00:17:06;;;;;;;9.20;2.10;;;18.00;99.90;;;;;;5019859;28;20053;-70
2023/09/05 00:19:32;;;;;;;6.28;2.08;;;18.00;99.90;;;;;;5021326;28;20034;-71
2023/09/05 00:21:58;;;;;;;4.75;2.30;;;17.80;99.90;;;;;;5020708;28;20030;-71
2023/09/05 00:24:28;;;;;;;6.38;1.90;;;17.70;99.90;;;;;;5020002;28;20049;-70
2023/09/05 00:26:55;;;;;;;3.08;2.10;;;17.60;99.90;;;;;;5019870;28;20022;-70
2023/09/05 00:29:21;;;;;;;4.72;1.98;;;17.60;99.90;;;;;;5020825;28;20045;-71
2023/09/05 00:31:47;;;;;;;5.88;2.10;;;17.50;99.90;;;;;;5020403;28;20021;-71
2023/09/05 00:34:14;;;;;;;3.80;2.03;;;17.50;99.90;;;;;;5019840;28;20018;-70
2023/09/05 00:36:40;;;;;;;5.18;2.08;;;17.40;99.90;;;;;;5020161;28;20026;-71
2023/09/05 00:39:06;;;;;;;4.65;2.15;;;17.30;99.90;;;;;;5019580;28;20026;-70
2023/09/05 00:41:32;;;;;;;3.30;1.92;;;17.20;99.90;;;;;;5020687;28;20079;-71
2023/09/05 00:43:59;;;;;;;2.85;1.70;;;17.10;99.90;;;;;;5019677;28;20056;-70
2023/09/05 00:46:25;;;;;;;5.22;2.17;;;17.20;99.90;;;;;;5020483;28;20022;-71
2023/09/05 00:48:52;;;;;;;3.90;2.28;;;17.20;99.90;;;;;;5019854;28;20026;-70
2023/09/05 00:51:19;;;;;;;6.07;2.20;;;17.30;99.90;;;;;;5020592;28;20024;-70
2023/09/05 00:53:45;;;;;;;7.70;2.05;;;17.20;99.90;;;;;;5020823;28;20030;-70
2023/09/05 00:56:11;;;;;;;3.40;2.03;;;17.10;99.90;;;;;;5020817;28;20030;-70
2023/09/05 00:58:36;;;;;;;7.57;2.40;;;17.00;99.90;;;;;;5020185;28;20028;-70
2023/09/05 01:01:02;;;;;;;8.40;2.45;;;16.90;99.90;;;;;;5020142;28;20030;-70
2023/09/05 01:03:27;;;;;;;3.03;2.15;;;16.80;99.90;;;;;;5019184;28;20057;-70
2023/09/05 01:06:00;;;;;;;4.47;2.20;;;16.80;99.90;;;;;;5019226;28;20256;-71
2023/09/05 01:08:29;;;;;;;3.35;2.00;;;16.90;99.90;;;;;;5019936;28;20076;-70
2023/09/05 01:10:59;;;;;;;6.13;2.45;;;16.90;99.90;;;;;;5020507;28;20112;-70
2023/09/05 01:13:31;;;;;;;7.85;2.42;;;16.90;99.90;;;;;;5020337;28;20034;-71
2023/09/05 01:15:56;;;;;;;4.97;1.90;;;16.80;99.90;;;;;;5019926;28;20026;-70
2023/09/05 01:18:22;;;;;;;5.00;2.20;;;16.80;99.90;;;;;;5020062;28;20045;-70
2023/09/05 01:20:59;;;;;;;4.57;2.88;;;16.80;99.90;;;;;;5019135;28;20172;-70
2023/09/05 01:23:31;;;;;;;4.40;2.13;;;16.80;99.90;;;;;;5019912;28;20033;-70
2023/09/05 01:25:59;;;;;;;4.47;2.03;;;16.90;99.90;;;;;;5019674;28;20041;-70
2023/09/05 01:28:26;;;;;;;5.65;1.90;;;17.00;99.90;;;;;;5019852;28;20026;-70
2023/09/05 01:30:53;;;;;;;7.07;1.73;;;17.00;99.90;;;;;;5018902;28;20034;-70
2023/09/05 01:33:18;;;;;;;3.03;2.17;;;17.00;99.90;;;;;;5019631;28;20033;-70
2023/09/05 01:35:44;;;;;;;5.60;1.85;;;17.00;99.90;;;;;;5019017;28;20037;-71
2023/09/05 01:38:09;;;;;;;3.90;1.98;;;16.90;99.90;;;;;;5019387;28;20159;-70
2023/09/05 01:40:35;;;;;;;3.95;2.08;;;17.00;99.90;;;;;;5018735;28;20021;-70
2023/09/05 01:43:01;;;;;;;3.28;1.88;;;16.90;99.90;;;;;;5020107;28;20026;-70
2023/09/05 01:45:26;;;;;;;4.25;2.17;;;16.80;99.90;;;;;;5018450;28;20022;-70
2023/09/05 01:47:52;;;;;;;4.05;2.03;;;16.70;99.90;;;;;;5018597;28;20072;-70
2023/09/05 01:50:19;;;;;;;3.45;2.10;;;16.60;99.90;;;;;;5018355;28;20022;-70
2023/09/05 01:52:45;;;;;;;6.35;2.53;;;16.70;99.90;;;;;;5019211;28;20022;-71
2023/09/05 01:55:10;;;;;;;3.38;2.10;;;16.60;99.90;;;;;;5018702;28;20044;-71
2023/09/05 01:57:36;;;;;;;2.50;1.98;;;16.60;99.90;;;;;;5018103;28;20058;-71
2023/09/05 02:00:01;;;;;;;2.55;1.88;;;16.70;99.90;;;;;;5018328;28;20018;-70
2023/09/05 02:02:27;;;;;;;3.13;2.30;;;16.70;99.90;;;;;;5018333;28;20032;-71
2023/09/05 02:04:52;;;;;;;5.03;2.17;;;16.80;99.90;;;;;;5018027;28;20026;-71
2023/09/05 02:07:18;;;;;;;3.75;2.42;;;16.80;99.90;;;;;;5018006;28;20048;-70
2023/09/05 02:09:44;;;;;;;5.55;2.03;;;16.80;99.90;;;;;;5017919;28;20117;-71
2023/09/05 02:12:09;;;;;;;4.20;2.05;;;16.70;99.90;;;;;;5019182;28;20057;-70
2023/09/05 02:14:36;;;;;;;4.00;2.10;;;16.70;99.90;;;;;;5017831;28;20030;-72
2023/09/05 02:17:02;;;;;;;2.45;1.55;;;16.60;99.90;;;;;;5017524;28;20054;-72
2023/09/05 02:19:28;;;;;;;6.47;2.15;;;16.60;99.90;;;;;;5017963;28;20030;-72
2023/09/05 02:21:55;;;;;;;4.82;2.10;;;16.60;99.90;;;;;;5017572;28;20026;-72
2023/09/05 02:24:20;;;;;;;4.30;1.90;;;16.60;99.90;;;;;;5017700;28;20029;-72
2023/09/05 02:26:46;;;;;;;5.07;2.13;;;16.50;99.90;;;;;;5017634;28;20024;-72
2023/09/05 02:29:11;;;;;;;13.45;2.45;;;16.40;99.90;;;;;;5017583;28;20120;-72
2023/09/05 02:31:37;;;;;;;5.13;2.95;;;16.40;99.90;;;;;;5018134;28;20160;-72
2023/09/05 02:34:03;;;;;;;2.20;1.92;;;16.40;99.90;;;;;;5017789;28;20120;-72
2023/09/05 02:36:30;;;;;;;3.85;2.08;;;16.40;99.90;;;;;;5017642;28;20022;-72
2023/09/05 02:38:58;;;;;;;7.22;2.03;;;16.40;99.90;;;;;;5016810;28;20022;-72
2023/09/05 02:41:23;;;;;;;4.82;2.25;;;16.40;99.90;;;;;;5017831;28;20054;-72
2023/09/05 02:43:49;;;;;;;13.65;2.28;;;16.40;99.90;;;;;;5017677;28;20050;-72
2023/09/05 02:46:15;;;;;;;2.85;1.85;;;16.40;99.90;;;;;;5017337;28;20049;-72
2023/09/05 02:48:42;;;;;;;5.07;2.20;;;16.40;99.90;;;;;;5018325;28;20022;-72
2023/09/05 02:51:11;;;;;;;6.35;2.25;;;16.40;99.90;;;;;;5017138;28;20030;-72
2023/09/05 02:53:37;;;;;;;6.13;2.65;;;16.50;99.90;;;;;;5017188;28;20112;-72
2023/09/05 02:56:03;;;;;;;5.45;2.67;;;16.40;99.90;;;;;;5018202;28;20080;-72
2023/09/05 02:58:30;;;;;;;4.65;2.08;;;16.20;99.90;;;;;;5017251;28;20038;-72
2023/09/05 03:01:00;;;;;;;5.85;2.28;;;16.20;99.90;;;;;;5017086;28;20025;-72
2023/09/05 03:03:26;;;;;;;3.38;1.85;;;16.10;99.90;;;;;;5017773;28;20026;-72
2023/09/05 03:05:52;;;;;;;2.88;1.98;;;16.10;99.90;;;;;;5017808;28;20034;-72
2023/09/05 03:08:18;;;;;;;5.15;2.50;;;16.10;99.90;;;;;;5017043;28;20021;-72
2023/09/05 03:10:44;;;;;;;3.58;1.92;;;16.20;99.90;;;;;;5016842;28;20037;-72
2023/09/05 03:13:09;;;;;;;2.97;2.20;;;16.20;99.90;;;;;;5017465;28;20025;-72
2023/09/05 03:15:35;;;;;;;3.88;1.90;;;16.30;99.90;;;;;;5016674;28;20033;-72
2023/09/05 03:18:00;;;;;;;4.82;2.10;;;16.30;99.90;;;;;;5040615;22;20041;-69
2023/09/05 03:20:26;;;;;;;6.60;2.20;;;16.20;99.90;;;;;;5016646;28;20026;-69
2023/09/05 03:22:52;;;;;;;4.68;2.10;;;16.30;99.90;;;;;;5017494;28;20026;-64
2023/09/05 03:25:18;;;;;;;6.18;2.35;;;16.20;99.90;;;;;;5017752;28;20022;-64
2023/09/05 03:27:44;;;;;;;3.85;2.20;;;16.20;99.90;;;;;;5017433;28;20033;-64
2023/09/05 03:30:10;;;;;;;6.53;2.22;;;16.10;99.90;;;;;;5016716;28;20072;-64
2023/09/05 03:32:37;;;;;;;9.75;2.53;;;16.00;99.90;;;;;;5032923;28;20025;-64
2023/09/05 03:35:03;;;;;;;4.78;2.38;;;16.10;99.90;;;;;;5016611;28;20030;-64
2023/09/05 03:37:29;;;;;;;6.65;2.28;;;16.10;99.90;;;;;;5017653;28;20029;-64
2023/09/05 03:39:54;;;;;;;4.38;2.22;;;16.10;99.90;;;;;;5017481;28;20025;-64
2023/09/05 03:42:20;;;;;;;7.93;2.30;;;16.00;99.90;;;;;;5017516;28;20026;-64
2023/09/05 03:44:45;;;;;;;5.18;2.20;;;16.00;99.90;;;;;;5017240;28;20029;-64
2023/09/05 03:47:11;;;;;;;5.55;2.55;;;16.00;99.90;;;;;;5017632;28;20108;-64
2023/09/05 03:49:36;;;;;;;7.30;2.28;;;16.00;99.90;;;;;;5017293;28;20022;-64
2023/09/05 03:52:02;;;;;;;5.30;2.15;;;16.00;99.90;;;;;;5016386;28;20067;-64
2023/09/05 03:54:28;;;;;;;3.72;2.35;;;15.90;99.90;;;;;;5017005;28;20030;-64
2023/09/05 03:56:53;;;;;;;6.93;1.85;;;15.90;99.90;;;;;;5016594;28;20029;-64
2023/09/05 03:59:19;;;;;;;5.57;1.50;;;15.90;99.90;;;;;;5016182;28;20025;-64
2023/09/05 04:01:46;;;;;;;3.45;1.67;;;15.90;99.90;;;;;;5017108;28;20038;-64
2023/09/05 04:04:12;;;;;;;5.45;2.10;;;16.00;99.90;;;;;;5016331;28;20026;-64
2023/09/05 04:06:37;;;;;;;5.72;2.15;;;16.00;99.90;;;;;;5016251;28;20036;-64
2023/09/05 04:09:03;;;;;;;7.22;2.38;;;16.10;99.90;;;;;;5017052;28;20022;-64
2023/09/05 04:11:28;;;;;;;5.68;2.63;;;16.10;99.90;;;;;;5016986;28;20026;-64
2023/09/05 04:13:54;;;;;;;6.28;2.20;;;16.10;99.90;;;;;;5017226;28;20097;-64
2023/09/05 04:16:19;;;;;;;3.15;2.25;;;16.00;99.90;;;;;;5016340;28;20037;-64
2023/09/05 04:18:45;;;;;;;3.50;2.08;;;16.00;99.90;;;;;;5015911;28;20063;-64
2023/09/05 04:21:11;;;;;;;5.05;2.40;;;16.00;99.90;;;;;;5016299;28;20057;-64
2023/09/05 04:23:37;;;;;;;6.60;2.35;;;16.00;99.90;;;;;;5016162;28;20068;-64
2023/09/05 04:26:02;;;;;;;4.63;2.13;;;16.10;99.90;;;;;;5015979;28;20022;-64
2023/09/05 04:28:29;;;;;;;4.85;2.50;;;16.10;99.90;;;;;;5016295;28;20164;-64
2023/09/05 04:30:55;;;;;;;4.70;2.22;;;16.10;99.90;;;;;;5016338;28;20048;-64
2023/09/05 04:33:25;;;;;;;7.40;2.45;;;16.00;99.90;;;;;;5016306;28;20030;-64
2023/09/05 04:35:51;;;;;;;3.88;2.30;;;16.10;99.90;;;;;;5016941;28;20124;-64
2023/09/05 04:38:17;;;;;;;6.35;2.70;;;16.10;99.90;;;;;;5016280;28;20061;-64
2023/09/05 04:40:42;;;;;;;3.80;2.58;;;16.00;99.90;;;;;;5015874;28;20026;-64
2023/09/05 04:43:08;;;;;;;7.97;2.35;;;16.00;99.90;;;;;;5016314;28;20110;-64
2023/09/05 04:45:33;;;;;;;4.45;2.78;;;16.00;99.90;;;;;;5016093;28;20018;-64
2023/09/05 04:47:59;;;;;;;4.50;2.25;;;16.00;99.90;;;;;;5016240;28;20115;-64
2023/09/05 04:50:25;;;;;;;5.40;2.67;;;16.00;99.90;;;;;;5016275;28;20018;-64
2023/09/05 04:52:51;;;;;;;5.80;2.65;;;16.10;99.90;;;;;;5016187;28;20026;-64
2023/09/05 04:55:16;;;;;;;5.32;2.55;;;16.10;99.90;;;;;;5016358;28;20041;-64
2023/09/05 04:57:42;;;;;;;16.60;2.78;;;16.10;99.90;;;;;;5015979;28;20029;-64
2023/09/05 05:00:10;;;;;;;4.65;2.47;;;16.00;99.90;;;;;;5016077;28;20037;-64
2023/09/05 05:02:35;;;;;;;3.80;2.10;;;16.00;99.90;;;;;;5034788;28;20072;-64
2023/09/05 05:05:01;;;;;;;4.70;2.28;;;16.10;99.90;;;;;;5019757;28;20022;-64
2023/09/05 05:07:26;;;;;;;4.13;2.45;;;16.00;99.90;;;;;;5019702;28;20037;-64
2023/09/05 05:09:52;;;;;;;5.38;2.20;;;15.90;99.90;;;;;;5019981;28;20021;-64
2023/09/05 05:12:18;;;;;;;4.82;2.42;;;15.90;99.90;;;;;;5019676;28;20022;-64
2023/09/05 05:14:43;;;;;;;6.00;2.38;;;15.90;99.90;;;;;;5019850;28;20025;-64
2023/09/05 05:17:11;;;;;;;3.53;2.15;;;15.90;99.90;;;;;;5019560;28;20026;-65
2023/09/05 05:19:37;;;;;;;3.47;2.28;;;15.90;99.90;;;;;;5018891;28;20033;-65
2023/09/05 05:22:02;;;;;;;6.25;2.25;;;16.00;99.90;;;;;;5018878;28;20149;-64
2023/09/05 05:24:28;;;;;;;4.93;2.63;;;16.00;99.90;;;;;;5018873;28;20040;-65
2023/09/05 05:26:53;;;;;;;4.47;2.38;;;16.00;99.90;;;;;;5019218;28;20049;-65
2023/09/05 05:29:19;;;;;;;3.95;2.20;;;16.00;99.90;;;;;;5019074;28;20029;-65
2023/09/05 05:31:45;;;;;;;5.25;2.58;;;16.00;99.90;;;;;;5019584;28;20061;-65
2023/09/05 05:34:10;;;;;;;5.45;2.75;;;16.00;99.90;;;;;;5019720;28;20033;-65
2023/09/05 05:36:36;;;;;;;4.50;2.67;;;15.90;99.90;;;;;;5019540;28;20079;-65
2023/09/05 05:39:02;;;;;;;5.97;2.47;;;16.00;99.90;;;;;;5018575;28;20164;-65
2023/09/05 05:41:28;;;;;;;4.25;2.47;;;16.00;99.90;;;;;;5018954;28;20184;-65
2023/09/05 05:43:55;;;;;;;6.97;2.60;;;16.00;99.90;;;;;;5018886;28;20060;-65
2023/09/05 05:46:20;;;;;;;4.72;2.53;;;16.10;99.90;;;;;;5018911;28;20018;-65
2023/09/05 05:48:46;;;;;;;5.75;2.25;;;16.10;99.90;;;;;;5018625;28;20018;-65
2023/09/05 05:51:13;;;;;;;4.55;2.75;;;16.10;99.90;;;;;;5018742;28;20021;-65
2023/09/05 05:53:39;;;;;;;5.65;2.72;;;16.20;99.90;;;;;;5018741;28;20029;-65
2023/09/05 05:56:05;;;;;;;6.20;2.88;;;16.40;99.90;;;;;;5018319;28;20034;-65
2023/09/05 05:58:31;;;;;;;6.15;2.65;;;16.50;99.90;;;;;;5018563;28;20040;-65
2023/09/05 06:00:57;;;;;;;8.38;2.75;;;16.60;99.90;;;;;;5018597;28;20030;-65
2023/09/05 06:03:23;;;;;;;5.90;2.50;;;16.70;99.90;;;;;;5018061;28;20022;-71
2023/09/05 06:05:50;;;;;;;7.50;2.45;;;16.80;99.90;;;;;;5018240;28;20022;-70
2023/09/05 06:08:17;;;;;;;7.03;2.40;;;16.80;99.90;;;;;;5018339;28;20109;-70
2023/09/05 06:10:43;;;;;;;4.00;2.20;;;16.80;99.90;;;;;;5018907;28;20064;-70
2023/09/05 06:13:09;;;;;;;9.25;2.30;;;16.90;99.90;;;;;;5018207;28;20109;-70
2023/09/05 06:15:35;;;;;;;5.22;2.30;;;16.80;99.90;;;;;;5018735;28;20018;-71
2023/09/05 06:18:01;;;;;;;4.90;2.35;;;16.90;99.90;;;;;;5018145;28;20037;-71
2023/09/05 06:20:28;;;;;;;6.28;2.63;;;17.00;99.90;;;;;;5018199;28;20176;-71
2023/09/05 06:22:54;;;;;;;4.32;2.55;;;17.20;99.90;;;;;;5017729;28;20030;-71
2023/09/05 06:25:20;;;;;;;7.10;2.08;;;17.30;99.90;;;;;;5017866;28;20093;-71
2023/09/05 06:27:46;;;;;;;4.45;2.03;;;17.30;99.90;;;;;;5018115;28;20030;-71
2023/09/05 06:30:13;;;;;;;3.80;2.40;;;17.30;99.90;;;;;;5018014;28;20104;-71
2023/09/05 06:32:39;;;;;;;4.97;2.30;;;17.40;99.90;;;;;;5017902;28;20032;-70
2023/09/05 06:35:05;;;;;;;2.28;1.70;;;17.50;99.90;;;;;;5018575;28;20032;-71
2023/09/05 06:37:33;;;;;;;5.05;2.13;;;17.60;99.90;;;;;;5017685;28;20096;-71
2023/09/05 06:39:59;;;;;;;3.53;1.73;;;17.70;99.90;;;;;;5017493;28;20021;-71
2023/09/05 06:42:25;;;;;;;8.43;2.20;;;17.80;99.90;;;;;;5017432;28;20029;-71
2023/09/05 06:44:51;;;;;;;2.90;2.20;;;17.90;99.90;;;;;;5017733;28;20058;-71
2023/09/05 06:47:16;;;;;;;3.38;1.95;;;17.90;99.90;;;;;;5017699;28;20067;-71
2023/09/05 06:49:42;;;;;;;5.57;2.00;;;18.00;99.90;;;;;;5017805;28;20025;-71
2023/09/05 06:52:07;;;;;;;3.67;2.30;;;18.10;99.90;;;;;;5017313;28;20029;-71
2023/09/05 06:54:33;;;;;;;5.60;2.20;;;18.20;99.90;;;;;;5017538;28;20054;-71
2023/09/05 06:56:59;;;;;;;3.03;2.42;;;18.20;99.90;;;;;;5017319;28;20037;-70
2023/09/05 06:59:25;;;;;;;3.78;2.13;;;18.30;99.90;;;;;;5017918;28;20033;-70
2023/09/05 07:01:50;;;;;;;5.50;2.17;;;18.40;99.90;;;;;;5016995;28;20026;-70
2023/09/05 07:04:16;;;;;;;11.18;2.58;;;18.50;99.90;;;;;;5017912;28;20025;-70
2023/09/05 07:06:41;;;;;;;6.35;2.08;;;18.60;99.90;;;;;;5017359;28;20032;-70
2023/09/05 07:09:07;;;;;;;3.13;1.65;;;18.70;99.90;;;;;;5016916;28;20048;-70
2023/09/05 07:11:36;;;;;;;12.25;2.53;;;18.90;99.90;;;;;;5017869;28;20026;-70
2023/09/05 07:14:02;;;;;;;5.45;1.52;;;19.00;99.90;;;;;;5017478;28;20032;-70
2023/09/05 07:16:27;;;;;;;2.83;2.03;;;19.00;99.90;;;;;;5017342;28;20113;-70
2023/09/05 07:18:53;;;;;;;2.70;1.52;;;19.20;99.90;;;;;;5017063;28;20038;-70
2023/09/05 07:21:18;;;;;;;5.80;1.55;;;19.20;99.90;;;;;;5017177;28;20022;-64
2023/09/05 07:23:44;;;;;;;4.78;1.60;;;19.30;99.90;;;;;;5016583;28;20025;-65
2023/09/05 07:26:10;;;;;;;2.75;1.67;;;19.40;99.90;;;;;;5017127;28;20026;-64
2023/09/05 07:28:35;;;;;;;4.03;1.40;;;19.50;99.90;;;;;;5016949;28;20026;-64
2023/09/05 07:31:01;;;;;;;3.33;1.55;;;19.70;99.90;;;;;;5017546;28;20030;-65
2023/09/05 07:33:27;;;;;;;3.65;1.63;;;19.80;99.90;;;;;;5016615;28;20072;-65
2023/09/05 07:35:52;;;;;;;2.05;1.70;;;19.90;99.90;;;;;;5017092;28;20025;-65
2023/09/05 07:38:21;;;;;;;3.03;1.52;;;20.00;99.90;;;;;;5017297;28;20022;-64
2023/09/05 07:40:48;;;;;;;1.88;1.40;;;20.10;99.90;;;;;;5016836;28;20088;-64
2023/09/05 07:43:13;;;;;;;4.68;1.60;;;20.10;99.90;;;;;;5017465;28;20030;-64
2023/09/05 07:45:39;;;;;;;1.98;1.55;;;20.20;99.90;;;;;;5016453;28;20018;-65
2023/09/05 07:48:07;;;;;;;4.70;1.90;;;20.30;99.90;;;;;;5016717;28;20026;-63
2023/09/05 07:50:34;;;;;;;2.03;1.58;;;20.40;99.90;;;;;;5016808;28;20022;-64
2023/09/05 07:53:00;;;;;;;5.82;1.75;;;20.50;99.90;;;;;;5017266;28;20033;-64
2023/09/05 07:55:26;;;;;;;2.75;1.70;;;20.60;99.90;;;;;;5016621;28;20034;-64
2023/09/05 07:57:52;;;;;;;4.30;1.77;;;20.80;99.90;;;;;;5016580;28;20026;-64
2023/09/05 08:00:19;;;;;;;4.38;1.63;;;20.90;99.90;;;;;;5016555;28;20021;-64
2023/09/05 08:02:45;;;;;;;1.80;1.40;;;20.90;99.90;;;;;;5017045;28;20101;-65
2023/09/05 08:05:14;;;;;;;3.92;1.92;;;21.00;99.90;;;;;;5017334;28;20049;-64
2023/09/05 08:07:40;;;;;;;5.07;1.65;;;21.20;99.90;;;;;;5016475;28;20089;-65
2023/09/05 08:10:07;;;;;;;2.38;1.52;;;21.20;99.90;;;;;;5016698;28;20025;-64
2023/09/05 08:12:32;;;;;;;3.60;1.40;;;21.20;99.90;;;;;;5016456;28;20080;-64
2023/09/05 08:14:58;;;;;;;2.95;1.50;;;21.30;99.90;;;;;;5016559;28;20034;-65
2023/09/05 08:17:23;;;;;;;2.22;1.60;;;21.30;99.90;;;;;;5016243;28;20038;-65
2023/09/05 08:19:49;;;;;;;3.80;1.70;;;21.40;99.90;;;;;;5016940;28;20040;-65
2023/09/05 08:22:14;;;;;;;1.92;1.42;;;21.40;99.90;;;;;;5016299;28;20038;-65
2023/09/05 08:24:40;;;;;;;2.25;1.58;;;21.60;99.90;;;;;;5016314;28;20022;-64
2023/09/05 08:27:05;;;;;;;5.78;2.17;;;21.50;99.90;;;;;;5016665;28;20068;-65
2023/09/05 08:29:32;;;;;;;6.85;1.90;;;21.60;99.90;;;;;;5016272;28;20018;-65
2023/09/05 08:31:59;;;;;;;3.80;1.67;;;21.80;99.90;;;;;;5016905;28;20141;-65
2023/09/05 08:34:24;;;;;;;4.13;1.80;;;21.80;99.90;;;;;;5016382;28;20026;-65
2023/09/05 08:36:50;;;;;;;2.17;1.50;;;21.90;99.90;;;;;;5017719;28;20025;-65
2023/09/05 08:39:16;;;;;;;1.92;1.40;;;22.00;99.90;;;;;;5020577;28;20037;-65
2023/09/05 08:41:42;;;;;;;6.50;1.55;;;22.20;99.90;;;;;;5020447;28;20076;-64
2023/09/05 08:44:08;;;;;;;7.40;2.05;;;22.20;99.90;;;;;;5020126;28;20018;-64
2023/09/05 08:46:35;;;;;;;6.60;2.08;;;22.20;99.90;;;;;;5019683;28;20025;-65
2023/09/05 08:49:01;;;;;;;5.40;1.92;;;22.10;99.90;;;;;;5020262;28;20022;-65
2023/09/05 08:51:32;;;;;;;2.50;1.45;;;22.20;99.90;;;;;;5019568;28;20169;-65
2023/09/05 08:54:00;;;;;;;1.52;1.42;;;22.40;99.90;;;;;;5019991;28;20029;-64
2023/09/05 08:56:26;;;;;;;3.00;1.77;;;22.30;99.90;;;;;;5020072;28;20037;-64
2023/09/05 08:58:54;;;;;;;1.85;1.65;;;22.50;99.90;;;;;;5019823;28;20032;-64
2023/09/05 09:01:20;;;;;;;3.50;1.70;;;22.70;99.90;;;;;;5020164;28;20037;-64
2023/09/05 09:03:46;;;;;;;2.95;1.50;;;22.80;99.90;;;;;;5019716;28;20049;-65
2023/09/05 09:06:12;;;;;;;2.90;1.38;;;22.80;99.90;;;;;;5019386;28;20033;-65
2023/09/05 09:08:42;;;;;;;1.75;1.20;;;22.80;99.90;;;;;;5019465;28;20014;-65
2023/09/05 09:11:09;;;;;;;3.88;1.88;;;22.90;99.90;;;;;;5020095;28;20034;-65
2023/09/05 09:13:38;;;;;;;2.60;1.88;;;22.90;99.90;;;;;;5019461;28;20033;-65
2023/09/05 09:16:03;;;;;;;1.85;1.35;;;23.00;99.90;;;;;;5019924;28;20117;-65
2023/09/05 09:18:32;;;;;;;3.83;1.60;;;23.10;99.90;;;;;;5027337;23;20249;-67
2023/09/05 09:21:02;;;;;;;2.40;1.95;;;23.10;99.90;;;;;;4999334;28;20049;-67
2023/09/05 09:23:30;;;;;;;3.92;1.50;;;23.30;99.90;;;;;;5000208;28;20022;-67
2023/09/05 09:25:57;;;;;;;2.60;1.70;;;23.30;99.90;;;;;;5000171;28;20026;-67
2023/09/05 09:28:31;;;;;;;1.88;1.67;;;23.40;99.90;;;;;;4999575;28;20022;-67
2023/09/05 09:31:02;;;;;;;1.95;1.50;;;23.40;99.90;;;;;;5000383;28;20026;-67
2023/09/05 09:33:32;;;;;;;3.28;1.52;;;23.50;99.90;;;;;;4999735;28;20019;-67
2023/09/05 09:36:00;;;;;;;3.72;1.70;;;23.70;99.90;;;;;;4999077;28;20030;-67
2023/09/05 09:38:28;;;;;;;4.10;1.65;;;23.70;99.90;;;;;;4999134;28;20033;-67
2023/09/05 09:40:55;;;;;;;4.57;1.65;;;23.80;99.90;;;;;;4998996;28;20025;-67
2023/09/05 09:43:20;;;;;;;4.07;1.70;;;23.90;99.90;;;;;;4999974;28;20026;-67
2023/09/05 09:45:46;;;;;;;4.82;1.60;;;24.20;99.90;;;;;;4999371;28;20019;-67
2023/09/05 09:48:15;;;;;;;1.73;1.52;;;24.10;99.90;;;;;;4998454;28;20113;-67
2023/09/05 09:50:43;;;;;;;3.28;1.70;;;24.20;99.90;;;;;;4999233;28;20018;-67
2023/09/05 09:53:12;;;;;;;2.95;1.45;;;24.40;99.90;;;;;;4998855;28;20058;-67
2023/09/05 09:55:42;;;;;;;3.00;1.55;;;24.40;99.90;;;;;;4998809;28;20026;-67
2023/09/05 09:58:11;;;;;;;2.38;1.13;;;24.40;99.90;;;;;;4998539;28;20173;-67
2023/09/05 10:00:40;;;;;;;2.22;1.35;;;24.40;99.90;;;;;;4999660;28;20065;-67
2023/09/05 10:03:08;;;;;;;1.90;1.33;;;24.50;99.90;;;;;;4998626;28;20076;-67
2023/09/05 10:05:34;;;;;;;2.95;1.50;;;24.60;99.90;;;;;;4999326;28;20106;-67
2023/09/05 10:08:00;;;;;;;2.58;1.50;;;24.70;99.90;;;;;;4999383;28;20107;-67
2023/09/05 10:10:27;;;;;;;3.00;1.58;;;24.80;99.90;;;;;;4998370;28;20062;-67
2023/09/05 10:12:56;;;;;;;1.83;1.30;;;24.80;99.90;;;;;;4998860;28;20026;-67
2023/09/05 10:15:23;;;;;;;2.35;1.35;;;24.90;99.90;;;;;;4999270;28;20053;-67
2023/09/05 10:17:50;;;;;;;2.13;1.40;;;24.90;99.90;;;;;;4998995;28;20026;-67
2023/09/05 10:20:19;;;;;;;2.83;1.40;;;25.10;99.90;;;;;;4998462;28;20040;-67
2023/09/05 10:22:46;;;;;;;2.38;1.45;;;25.20;99.90;;;;;;4998192;28;20030;-67
2023/09/05 10:25:14;;;;;;;5.97;1.60;;;25.20;99.90;;;;;;4999381;28;20073;-67
2023/09/05 10:27:40;;;;;;;5.05;2.08;;;25.30;99.90;;;;;;4998078;28;20022;-67
2023/09/05 10:30:07;;;;;;;2.58;1.40;;;25.60;99.90;;;;;;4999320;28;20015;-69
2023/09/05 10:32:33;;;;;;;3.08;1.63;;;26.20;99.90;;;;;;4998061;28;20026;-69
2023/09/05 10:35:03;;;;;;;1.63;1.40;;;26.30;99.90;;;;;;4998347;28;20022;-69
2023/09/05 10:37:35;;;;;;;2.40;1.35;;;26.30;99.90;;;;;;4999214;28;20030;-69
2023/09/05 10:40:08;;;;;;;2.33;1.63;;;26.40;99.90;;;;;;4997831;28;20034;-69
2023/09/05 10:42:35;;;;;;;2.75;1.65;;;26.50;99.90;;;;;;4998977;28;20021;-69
2023/09/05 10:45:21;;;;;;;2.05;1.50;;;26.60;99.90;;;;;;4997872;28;20081;-69
2023/09/05 10:47:49;;;;;;;2.78;1.58;;;26.60;99.90;;;;;;4997709;28;20026;-69
2023/09/05 10:50:19;;;;;;;5.93;1.42;;;26.50;99.90;;;;;;4997582;28;20034;-69
2023/09/05 10:52:49;;;;;;;1.88;1.50;;;26.50;99.90;;;;;;4997938;28;20030;-69
2023/09/05 10:55:31;;;;;;;2.20;1.73;;;26.90;99.90;;;;;;4998529;28;20037;-69
2023/09/05 10:57:58;;;;;;;2.80;1.65;;;27.00;99.90;;;;;;4998449;28;20026;-69
2023/09/05 11:00:26;;;;;;;3.85;1.55;;;27.50;99.90;;;;;;4997137;28;20029;-69
2023/09/05 11:02:54;;;;;;;7.25;1.50;;;27.80;99.90;;;;;;4997442;28;20029;-69
2023/09/05 11:05:31;;;;;;;4.95;1.65;;;27.70;99.90;;;;;;4998471;28;20021;-69
2023/09/05 11:07:58;;;;;;;3.03;1.55;;;27.50;99.90;;;;;;4997307;28;20026;-69
2023/09/05 11:10:33;;;;;;;3.58;1.70;;;27.80;99.90;;;;;;4998654;28;20022;-69
2023/09/05 11:13:14;;;;;;;2.65;1.50;;;27.90;99.90;;;;;;4998140;28;20019;-69
2023/09/05 11:15:43;;;;;;;4.25;1.70;;;28.10;99.90;;;;;;4997452;28;20034;-69
2023/09/05 11:18:14;;;;;;;3.50;1.60;;;28.20;99.90;;;;;;4998104;28;20058;-69
2023/09/05 11:20:41;;;;;;;2.90;1.45;;;28.10;99.90;;;;;;4997282;28;20031;-69
2023/09/05 11:23:20;;;;;;;2.30;1.73;;;28.10;99.90;;;;;;4997067;28;20022;-69
2023/09/05 11:25:53;;;;;;;1.65;1.50;;;28.10;99.90;;;;;;4998179;28;20049;-69
2023/09/05 11:28:24;;;;;;;4.90;1.58;;;28.10;99.90;;;;;;4997118;28;20046;-69
2023/09/05 11:31:03;;;;;;;3.97;1.48;;;28.30;99.90;;;;;;4998096;28;20053;-69
2023/09/05 11:33:42;;;;;;;5.22;1.50;;;28.80;99.90;;;;;;4997990;28;20026;-69
2023/09/05 11:36:08;;;;;;;2.13;1.25;;;29.10;99.90;;;;;;4996976;28;20026;-69
2023/09/05 11:38:52;;;;;;;1.58;1.30;;;28.90;99.90;;;;;;4997023;28;20018;-69
2023/09/05 11:41:23;;;;;;;3.55;1.40;;;28.70;99.90;;;;;;4997998;28;20022;-69
2023/09/05 11:43:57;;;;;;;1.63;1.35;;;;;;;;;;4996849;28;20022;-69
2023/09/05 11:47:02;;;;;;;1.70;1.60;;;30.10;99.90;;;;;;4998282;28;20022;-70
2023/09/05 11:49:30;;;;;;;4.18;1.63;;;30.90;99.90;;;;;;4922700;29;20038;-70
2023/09/05 11:51:56;;;;;;;1.77;1.67;;;30.80;99.90;;;;;;4938414;29;20050;-70
2023/09/05 11:54:22;;;;;;;4.57;2.03;;;30.60;99.90;;;;;;4938260;29;20040;-70
2023/09/05 11:56:50;;;;;;;2.78;1.45;;;30.10;99.90;;;;;;4922376;29;20034;-70
2023/09/05 11:59:16;;;;;;;1.92;1.40;;;30.10;99.90;;;;;;4938241;29;20036;-70
2023/09/05 12:01:42;;;;;;;2.40;1.70;;;30.20;99.90;;;;;;4938306;29;20036;-70
2023/09/05 12:04:09;;;;;;;1.75;1.30;;;30.30;99.90;;;;;;4938437;29;20055;-70
2023/09/05 12:06:34;;;;;;;1.95;1.38;;;30.20;99.90;;;;;;4938309;29;20039;-69
2023/09/05 12:09:00;;;;;;;7.63;1.83;;;30.60;99.90;;;;;;4938111;29;20028;-70
2023/09/05 12:11:26;;;;;;;1.65;1.40;;;30.40;99.90;;;;;;4940780;29;20031;-70
2023/09/05 12:13:56;;;;;;;1.70;1.10;;;30.10;99.90;;;;;;4942368;29;20040;-70
2023/09/05 12:16:22;;;;;;;1.20;1.10;;;29.70;99.90;;;;;;4941932;29;20145;-70
2023/09/05 12:18:48;;;;;;;6.57;1.23;;;30.60;99.80;;;;;;4925874;29;20075;-70
2023/09/05 12:21:14;;;;;;;2.63;1.50;;;31.30;99.10;;;;;;4941884;29;20027;-70
2023/09/05 12:23:40;;;;;;;2.47;1.17;;;31.50;98.40;;;;;;4941844;29;20023;-70
2023/09/05 12:26:06;;;;;;;1.17;1.00;;;32.10;98.50;;;;;;4969391;28;20126;-70
2023/09/05 12:28:35;;;;;;;2.58;1.48;;;31.70;97.70;;;;;;5000673;28;20026;-70
2023/09/05 12:31:12;;;;;;;1.58;1.25;;;30.90;99.00;;;;;;5000335;28;20122;-70
2023/09/05 12:33:38;;;;;;;3.15;1.30;;;31.00;99.10;;;;;;5001259;28;20022;-70
2023/09/05 12:36:04;;;;;;;6.85;1.65;;;31.30;97.30;;;;;;5000222;28;20025;-69
2023/09/05 12:38:30;;;;;;;1.83;1.30;;;31.40;97.90;;;;;;5000087;28;20022;-69
2023/09/05 12:40:57;;;;;;;2.17;1.17;;;31.20;96.70;;;;;;5000436;28;20106;-69
2023/09/05 12:43:23;;;;;;;1.80;1.33;;;31.40;96.60;;;;;;5000990;28;20077;-69
2023/09/05 12:45:49;;;;;;;4.22;1.33;;;31.20;96.60;;;;;;5000122;28;20022;-70